Time;durP1;ratioP1;P1;durP2;ratioP2;P2;SDS_P1;SDS_P2;PMS_P1;PMS_P2;Temp;Humidity;BMP_temperature;BMP_pressure;BME280_temperature;BME280_humidity;BME280_pressure;Samples;Min_cycle;Max_cycle;Signal;HPM_P1;HPM_P2
2021/10/08 00:00:38;;;;;;;17.90;9.90;;;14.90;99.90;;;;;;5046323;23;20496;-51
2021/10/08 00:03:05;;;;;;;16.40;9.80;;;14.80;99.90;;;;;;5039631;28;20456;-53
2021/10/08 00:05:31;;;;;;;15.53;8.93;;;14.80;99.90;;;;;;5061418;23;20527;-53
2021/10/08 00:08:01;;;;;;;13.50;9.20;;;14.70;99.90;;;;;;5038932;28;20472;-52
2021/10/08 00:10:29;;;;;;;12.67;8.60;;;14.70;99.90;;;;;;5046446;23;20507;-51
2021/10/08 00:12:55;;;;;;;13.80;9.47;;;14.60;99.90;;;;;;5039421;28;20530;-52
2021/10/08 00:15:22;;;;;;;14.70;10.07;;;14.60;99.90;;;;;;5047185;23;20488;-54
2021/10/08 00:17:49;;;;;;;16.90;11.00;;;14.50;99.90;;;;;;5039594;28;20964;-52
2021/10/08 00:20:18;;;;;;;15.97;10.93;;;14.50;99.90;;;;;;5035136;23;20490;-50
2021/10/08 00:22:46;;;;;;;12.50;8.63;;;14.50;99.90;;;;;;5000811;28;20497;-52
2021/10/08 00:25:14;;;;;;;20.33;10.70;;;14.40;99.90;;;;;;5015474;23;20550;-52
2021/10/08 00:27:41;;;;;;;16.07;11.60;;;14.40;99.90;;;;;;5040863;28;20467;-51
2021/10/08 00:30:12;;;;;;;17.53;10.57;;;14.40;99.90;;;;;;5049438;23;20900;-50
2021/10/08 00:32:39;;;;;;;15.33;9.77;;;14.30;99.90;;;;;;5040234;28;20459;-49
2021/10/08 00:37:36;;;;;;;16.10;10.70;;;14.20;99.90;;;;;;5041866;23;20495;-51
2021/10/08 00:40:02;;;;;;;13.60;8.97;;;14.20;99.90;;;;;;5038925;28;20189;-47
2021/10/08 00:42:32;;;;;;;19.47;10.27;;;14.20;99.90;;;;;;5013193;23;20530;-53
2021/10/08 00:44:59;;;;;;;13.93;9.70;;;14.10;99.90;;;;;;4999348;28;20516;-51
2021/10/08 00:47:26;;;;;;;15.83;10.50;;;14.00;99.90;;;;;;5038113;23;21021;-51
2021/10/08 00:49:53;;;;;;;21.37;11.10;;;14.00;99.90;;;;;;5038293;28;20479;-50
2021/10/08 00:52:19;;;;;;;22.13;11.87;;;14.00;99.90;;;;;;5053245;23;20549;-50
2021/10/08 00:54:46;;;;;;;13.30;9.03;;;13.90;99.90;;;;;;5038666;28;20479;-52
2021/10/08 00:57:13;;;;;;;15.37;8.87;;;13.90;99.90;;;;;;5045737;23;21628;-54
2021/10/08 00:59:43;;;;;;;17.93;10.23;;;13.90;99.90;;;;;;5038682;28;20552;-53
2021/10/08 01:02:09;;;;;;;16.00;10.90;;;13.80;99.90;;;;;;5046251;23;20468;-51
2021/10/08 01:04:36;;;;;;;17.97;9.80;;;13.80;99.90;;;;;;5037644;28;20486;-54
2021/10/08 01:07:03;;;;;;;16.97;9.73;;;13.70;99.90;;;;;;5038365;28;20449;-49
2021/10/08 01:09:30;;;;;;;17.60;10.83;;;13.70;99.90;;;;;;5045602;23;20503;-51
2021/10/08 01:11:56;;;;;;;19.87;11.53;;;13.70;99.90;;;;;;5039056;28;20444;-51
2021/10/08 01:14:23;;;;;;;17.47;9.70;;;13.70;99.90;;;;;;5045723;23;20487;-51
2021/10/08 01:16:51;;;;;;;19.70;11.20;;;13.60;99.90;;;;;;5038626;28;20531;-51
2021/10/08 01:19:18;;;;;;;21.07;11.40;;;13.60;99.90;;;;;;5045872;23;20492;-53
2021/10/08 01:21:47;;;;;;;16.67;10.13;;;13.60;99.90;;;;;;5039657;28;20424;-51
2021/10/08 01:24:15;;;;;;;16.37;11.13;;;13.60;99.90;;;;;;5046547;23;20558;-53
2021/10/08 01:26:42;;;;;;;16.17;10.77;;;13.60;99.90;;;;;;5039232;28;20492;-53
2021/10/08 01:29:10;;;;;;;17.30;11.17;;;13.60;99.90;;;;;;5046311;23;20542;-50
2021/10/08 01:31:37;;;;;;;20.27;10.47;;;13.60;99.90;;;;;;5039132;28;20986;-49
2021/10/08 01:36:36;;;;;;;17.93;10.53;;;13.60;99.90;;;;;;5044223;23;20549;-52
2021/10/08 01:39:04;;;;;;;19.07;11.10;;;13.60;99.90;;;;;;5040994;28;20455;-58
2021/10/08 01:41:31;;;;;;;26.80;12.00;;;13.60;99.90;;;;;;5050235;23;21034;-48
2021/10/08 01:43:58;;;;;;;18.33;11.13;;;13.60;99.90;;;;;;5042790;28;20468;-51
2021/10/08 01:46:24;;;;;;;17.00;10.53;;;13.60;99.90;;;;;;5049475;23;20491;-49
2021/10/08 01:48:51;;;;;;;18.40;11.50;;;13.50;99.90;;;;;;5042484;28;20448;-47
2021/10/08 01:51:18;;;;;;;17.67;10.77;;;13.50;99.90;;;;;;5050225;23;20499;-48
2021/10/08 01:53:45;;;;;;;21.17;11.00;;;13.50;99.90;;;;;;5042635;28;20452;-50
2021/10/08 01:56:13;;;;;;;15.57;9.33;;;13.40;99.90;;;;;;5050957;23;20495;-48
2021/10/08 01:58:39;;;;;;;17.47;11.53;;;13.40;99.90;;;;;;5044587;28;20506;-49
2021/10/08 02:01:06;;;;;;;20.87;11.00;;;13.40;99.90;;;;;;5065632;23;20491;-53
2021/10/08 02:03:35;;;;;;;17.27;10.30;;;13.40;99.90;;;;;;5042403;28;20816;-50
2021/10/08 02:06:01;;;;;;;19.00;10.13;;;13.40;99.90;;;;;;5049408;23;20499;-49
2021/10/08 02:08:28;;;;;;;17.13;11.20;;;13.30;99.90;;;;;;5042109;28;20471;-53
2021/10/08 02:10:55;;;;;;;14.90;9.83;;;13.30;99.90;;;;;;5049433;23;20484;-51
2021/10/08 02:13:24;;;;;;;17.93;11.50;;;13.20;99.90;;;;;;5041821;28;20559;-52
2021/10/08 02:16:04;;;;;;;19.83;11.50;;;13.20;99.90;;;;;;5049914;23;20456;-50
2021/10/08 02:18:31;;;;;;;20.23;12.00;;;13.20;99.90;;;;;;5021931;28;20499;-49
2021/10/08 02:21:00;;;;;;;19.70;11.50;;;13.20;99.90;;;;;;5030996;23;20464;-51
2021/10/08 02:23:40;;;;;;;18.10;11.60;;;13.20;99.90;;;;;;5040777;28;20502;-54
2021/10/08 02:29:03;;;;;;;22.57;12.63;;;13.20;99.90;;;;;;5047107;23;20506;-49
2021/10/08 02:31:39;;;;;;;22.17;11.27;;;13.20;99.90;;;;;;5049960;23;20498;-52
2021/10/08 02:34:09;;;;;;;19.30;12.67;;;13.30;99.90;;;;;;5021202;28;20452;-50
2021/10/08 02:39:03;;;;;;;20.80;13.67;;;13.30;99.90;;;;;;5007249;23;20577;-52
2021/10/08 02:41:30;;;;;;;25.50;13.80;;;13.20;99.90;;;;;;5002684;28;20521;-54
2021/10/08 02:43:58;;;;;;;26.03;13.77;;;13.20;99.90;;;;;;5058758;23;20504;-52
2021/10/08 02:46:28;;;;;;;24.53;14.23;;;13.20;99.90;;;;;;5041765;28;20859;-52
2021/10/08 02:48:54;;;;;;;19.23;12.73;;;13.20;99.90;;;;;;5049201;23;20520;-48
2021/10/08 02:51:21;;;;;;;26.67;13.90;;;13.20;99.90;;;;;;5040169;28;20468;-53
2021/10/08 02:53:54;;;;;;;26.00;15.13;;;13.20;99.90;;;;;;5048161;23;20495;-49
2021/10/08 02:56:21;;;;;;;22.70;14.80;;;13.20;99.90;;;;;;5041384;28;20750;-53
2021/10/08 02:58:47;;;;;;;23.17;12.33;;;13.10;99.90;;;;;;5056996;23;20515;-48
2021/10/08 03:01:16;;;;;;;20.37;13.97;;;13.10;99.90;;;;;;5041252;28;20451;-54
2021/10/08 03:03:42;;;;;;;27.50;13.30;;;13.10;99.90;;;;;;5048660;23;20567;-53
2021/10/08 03:06:12;;;;;;;19.30;12.90;;;13.10;99.90;;;;;;5041193;28;20484;-54
2021/10/08 03:08:39;;;;;;;23.10;14.57;;;13.10;99.90;;;;;;5049144;23;20500;-51
2021/10/08 03:11:05;;;;;;;35.87;16.33;;;13.10;99.90;;;;;;5041433;28;20466;-49
2021/10/08 03:13:32;;;;;;;26.27;14.77;;;13.10;99.90;;;;;;5049324;23;20562;-49
2021/10/08 03:15:58;;;;;;;27.47;15.80;;;13.10;99.90;;;;;;5041387;28;20464;-51
2021/10/08 03:18:30;;;;;;;20.87;14.13;;;13.00;99.90;;;;;;5048668;23;20444;-48
2021/10/08 03:21:03;;;;;;;28.80;14.70;;;13.10;99.90;;;;;;5041008;28;20480;-48
2021/10/08 03:23:30;;;;;;;23.17;13.40;;;13.00;99.90;;;;;;5049476;23;20459;-47
2021/10/08 03:25:57;;;;;;;25.70;14.73;;;13.00;99.90;;;;;;5023216;28;20771;-48
2021/10/08 03:28:23;;;;;;;20.97;13.27;;;13.00;99.90;;;;;;5024284;28;20833;-52
2021/10/08 03:30:50;;;;;;;25.30;14.27;;;13.00;99.90;;;;;;5046346;23;21050;-52
2021/10/08 03:33:17;;;;;;;27.70;14.33;;;13.00;99.90;;;;;;5041973;28;20471;-53
2021/10/08 03:35:45;;;;;;;22.63;13.93;;;13.00;99.90;;;;;;5048628;23;20507;-51
2021/10/08 03:38:14;;;;;;;25.87;14.17;;;13.00;99.90;;;;;;5042491;28;20501;-53
2021/10/08 03:40:41;;;;;;;26.87;16.30;;;13.00;99.90;;;;;;5049451;23;20534;-50
2021/10/08 03:43:12;;;;;;;26.43;15.10;;;12.90;99.90;;;;;;5041858;28;20460;-48
2021/10/08 03:45:45;;;;;;;28.60;15.53;;;12.90;99.90;;;;;;5056242;23;20583;-50
2021/10/08 03:48:22;;;;;;;35.90;15.50;;;12.90;99.90;;;;;;5041325;28;20429;-53
2021/10/08 03:50:50;;;;;;;26.07;15.07;;;12.90;99.90;;;;;;5048733;23;20569;-51
2021/10/08 03:53:19;;;;;;;32.53;16.30;;;12.90;99.90;;;;;;5040384;28;20424;-53
2021/10/08 03:55:48;;;;;;;32.07;15.47;;;12.90;99.90;;;;;;5048326;23;20893;-52
2021/10/08 03:58:14;;;;;;;28.87;16.17;;;12.90;99.90;;;;;;5040516;28;20467;-54
2021/10/08 04:03:12;;;;;;;27.33;14.30;;;13.00;99.90;;;;;;5038103;28;20491;-50
2021/10/08 04:05:39;;;;;;;33.03;17.13;;;13.00;99.90;;;;;;5040154;28;20432;-53
2021/10/08 04:08:07;;;;;;;27.23;14.90;;;13.00;99.90;;;;;;5047168;23;20492;-49
2021/10/08 04:10:33;;;;;;;30.30;17.80;;;13.00;99.90;;;;;;5040849;28;20468;-55
2021/10/08 04:13:20;;;;;;;27.80;17.10;;;13.00;99.90;;;;;;5032941;23;20489;-53
2021/10/08 04:15:47;;;;;;;35.07;16.17;;;13.10;99.90;;;;;;5020641;28;20503;-51
2021/10/08 04:18:20;;;;;;;32.43;15.43;;;13.00;99.90;;;;;;5043782;23;20789;-48
2021/10/08 04:20:47;;;;;;;27.97;15.23;;;13.00;99.90;;;;;;5040514;28;20818;-49
2021/10/08 04:23:15;;;;;;;29.20;15.77;;;13.00;99.90;;;;;;5040394;28;20500;-47
2021/10/08 04:25:42;;;;;;;29.10;15.63;;;13.00;99.90;;;;;;5040214;28;20917;-52
2021/10/08 04:28:12;;;;;;;26.57;13.03;;;13.00;99.90;;;;;;5040395;28;20460;-52
2021/10/08 04:30:39;;;;;;;26.40;15.30;;;12.90;99.90;;;;;;5040576;28;20479;-51
2021/10/08 04:33:16;;;;;;;26.07;16.27;;;12.90;99.90;;;;;;5040109;28;20514;-50
2021/10/08 04:35:45;;;;;;;25.63;14.87;;;12.90;99.90;;;;;;5040052;28;20428;-54
2021/10/08 04:38:12;;;;;;;33.57;16.33;;;12.90;99.90;;;;;;5040218;28;20741;-49
2021/10/08 04:40:40;;;;;;;28.27;15.83;;;12.90;99.90;;;;;;5040739;28;20476;-52
2021/10/08 04:43:07;;;;;;;26.47;14.40;;;12.90;99.90;;;;;;5040673;28;20502;-50
2021/10/08 04:45:34;;;;;;;27.40;15.57;;;12.80;99.90;;;;;;5040703;28;20952;-50
2021/10/08 04:48:01;;;;;;;23.10;14.20;;;12.80;99.90;;;;;;5039983;28;20550;-48
2021/10/08 04:50:27;;;;;;;29.77;15.70;;;12.80;99.90;;;;;;5039954;28;20440;-48
2021/10/08 04:52:54;;;;;;;23.47;14.80;;;12.80;99.90;;;;;;5042048;28;20555;-53
2021/10/08 04:55:21;;;;;;;28.17;15.50;;;12.80;99.90;;;;;;5042333;28;20451;-51
2021/10/08 04:57:49;;;;;;;27.43;14.93;;;12.70;99.90;;;;;;5040751;28;20456;-49
2021/10/08 05:00:17;;;;;;;25.37;15.00;;;12.70;99.90;;;;;;5039892;28;20498;-48
2021/10/08 05:02:43;;;;;;;27.07;14.60;;;12.70;99.90;;;;;;5040687;28;20468;-48
2021/10/08 05:05:10;;;;;;;27.10;15.20;;;12.60;99.90;;;;;;5042896;23;20492;-51
2021/10/08 05:07:37;;;;;;;27.53;14.90;;;12.60;99.90;;;;;;5037335;28;20565;-50
2021/10/08 05:10:04;;;;;;;29.27;15.07;;;12.60;99.90;;;;;;5044578;23;20895;-51
2021/10/08 05:12:31;;;;;;;32.37;16.70;;;12.60;99.90;;;;;;5037030;28;20449;-51
2021/10/08 05:14:59;;;;;;;23.20;14.13;;;12.60;99.90;;;;;;5048673;23;20550;-50
2021/10/08 05:17:25;;;;;;;32.73;16.50;;;12.60;99.90;;;;;;5042415;28;20530;-54
2021/10/08 05:19:52;;;;;;;28.27;15.80;;;12.50;99.90;;;;;;5032622;23;20494;-50
2021/10/08 05:22:18;;;;;;;29.40;15.20;;;12.50;99.90;;;;;;5006264;28;20454;-52
2021/10/08 05:24:50;;;;;;;24.53;15.07;;;12.50;99.90;;;;;;5021919;23;20492;-53
2021/10/08 05:27:17;;;;;;;35.13;17.43;;;12.50;99.90;;;;;;5040828;28;20468;-54
2021/10/08 05:29:44;;;;;;;29.10;14.77;;;12.50;99.90;;;;;;5041283;28;20862;-52
2021/10/08 05:32:12;;;;;;;28.03;15.40;;;12.50;99.90;;;;;;5040930;28;20509;-52
2021/10/08 05:34:40;;;;;;;25.70;15.40;;;12.50;99.90;;;;;;5041193;28;20475;-49
2021/10/08 05:37:07;;;;;;;26.10;14.80;;;12.50;99.90;;;;;;5041153;28;20517;-52
2021/10/08 05:39:34;;;;;;;27.13;16.33;;;12.50;99.90;;;;;;5040954;28;20514;-53
2021/10/08 05:42:00;;;;;;;27.27;14.77;;;12.40;99.90;;;;;;5041050;28;20498;-54
2021/10/08 05:44:27;;;;;;;31.40;16.70;;;12.40;99.90;;;;;;5041483;28;20967;-54
2021/10/08 05:46:54;;;;;;;29.13;16.20;;;12.40;99.90;;;;;;5048244;23;20492;-51
2021/10/08 05:49:22;;;;;;;29.87;15.40;;;12.50;99.90;;;;;;5041150;28;20571;-54
2021/10/08 05:51:49;;;;;;;29.80;18.37;;;12.50;99.90;;;;;;5048004;23;20541;-55
2021/10/08 05:54:16;;;;;;;22.90;14.57;;;12.50;99.90;;;;;;5040793;28;20459;-54
2021/10/08 05:56:43;;;;;;;29.20;16.40;;;12.50;99.90;;;;;;5047793;23;20573;-52
2021/10/08 05:59:09;;;;;;;41.67;17.13;;;12.60;99.90;;;;;;5041110;28;20509;-51
2021/10/08 06:01:36;;;;;;;28.83;15.90;;;12.60;99.90;;;;;;5040381;28;20460;-53
2021/10/08 06:04:06;;;;;;;25.33;14.17;;;12.60;99.90;;;;;;5040385;28;20475;-50
2021/10/08 06:06:34;;;;;;;29.17;16.40;;;12.60;99.90;;;;;;5062654;23;20867;-50
2021/10/08 06:09:01;;;;;;;26.30;14.10;;;12.60;99.90;;;;;;5041185;28;20838;-48
2021/10/08 06:11:29;;;;;;;26.53;14.93;;;12.60;99.90;;;;;;5044810;23;20499;-52
2021/10/08 06:13:56;;;;;;;24.73;15.77;;;12.60;99.90;;;;;;5037352;28;20506;-52
2021/10/08 06:16:23;;;;;;;27.97;15.40;;;12.70;99.90;;;;;;5038606;23;21329;-49
2021/10/08 06:18:49;;;;;;;22.03;14.70;;;12.70;99.90;;;;;;5029973;28;20461;-49
2021/10/08 06:21:16;;;;;;;25.60;15.67;;;12.70;99.90;;;;;;5028397;23;20445;-48
2021/10/08 06:23:44;;;;;;;27.67;13.30;;;12.70;99.90;;;;;;5040231;23;20488;-53
2021/10/08 06:26:11;;;;;;;27.80;16.00;;;12.70;99.90;;;;;;5028420;28;20473;-49
2021/10/08 06:28:38;;;;;;;26.27;14.63;;;12.70;99.90;;;;;;5038726;23;20550;-50
2021/10/08 06:31:04;;;;;;;25.30;15.60;;;12.70;99.90;;;;;;5017065;28;20489;-51
2021/10/08 06:33:31;;;;;;;32.37;16.43;;;12.70;99.90;;;;;;5033837;23;20802;-50
2021/10/08 06:35:58;;;;;;;26.50;15.60;;;12.80;99.90;;;;;;5028590;28;20930;-50
2021/10/08 06:38:24;;;;;;;26.03;14.60;;;12.80;99.90;;;;;;5029093;23;21010;-51
2021/10/08 06:40:52;;;;;;;21.47;15.10;;;12.90;99.90;;;;;;5036518;28;20788;-51
2021/10/08 06:43:19;;;;;;;27.63;15.63;;;12.90;99.90;;;;;;5042977;23;20559;-47
2021/10/08 06:45:46;;;;;;;29.07;15.70;;;12.90;99.90;;;;;;5040401;28;20456;-52
2021/10/08 06:48:13;;;;;;;22.80;13.43;;;12.90;99.90;;;;;;5039824;23;20509;-52
2021/10/08 06:50:40;;;;;;;32.03;13.70;;;13.00;99.90;;;;;;5016250;28;20491;-50
2021/10/08 06:53:09;;;;;;;26.17;15.90;;;13.00;99.90;;;;;;4998108;28;20480;-45
2021/10/08 06:55:39;;;;;;;22.27;15.03;;;13.00;99.90;;;;;;5047605;23;20553;-51
2021/10/08 06:58:14;;;;;;;25.93;15.37;;;13.10;99.90;;;;;;5039776;28;20500;-54
2021/10/08 07:00:45;;;;;;;26.53;14.30;;;13.10;99.90;;;;;;5054056;23;20805;-50
2021/10/08 07:03:12;;;;;;;29.07;15.97;;;13.20;99.90;;;;;;5019250;28;20488;-52
2021/10/08 07:05:39;;;;;;;31.53;13.67;;;13.20;99.90;;;;;;5044208;23;20496;-52
2021/10/08 07:08:06;;;;;;;28.63;16.70;;;13.30;99.90;;;;;;5048011;23;20492;-49
2021/10/08 07:10:43;;;;;;;25.93;13.73;;;13.40;99.90;;;;;;5061678;23;20495;-49
2021/10/08 07:13:11;;;;;;;27.17;14.80;;;13.50;99.90;;;;;;5040685;28;20904;-48
2021/10/08 07:15:38;;;;;;;25.23;14.27;;;13.50;99.90;;;;;;5049893;23;20972;-50
2021/10/08 07:18:07;;;;;;;23.10;13.43;;;13.60;99.90;;;;;;5043758;28;20460;-47
2021/10/08 07:20:34;;;;;;;24.00;13.33;;;13.60;99.90;;;;;;5047285;23;20500;-51
2021/10/08 07:23:02;;;;;;;22.63;13.70;;;13.70;99.90;;;;;;5040317;28;20897;-51
2021/10/08 07:25:31;;;;;;;25.00;15.07;;;13.80;99.90;;;;;;5047744;23;20507;-50
2021/10/08 07:27:59;;;;;;;25.13;15.50;;;13.90;99.90;;;;;;5040092;28;20480;-53
2021/10/08 07:30:27;;;;;;;26.13;14.27;;;14.00;99.90;;;;;;5047543;23;20799;-51
2021/10/08 07:32:54;;;;;;;21.57;13.87;;;14.10;99.90;;;;;;5039918;28;20452;-54
2021/10/08 07:35:24;;;;;;;29.60;12.70;;;14.30;99.90;;;;;;5037378;23;20497;-53
2021/10/08 07:37:51;;;;;;;17.63;11.90;;;14.40;99.90;;;;;;4999698;28;20470;-52
2021/10/08 07:40:20;;;;;;;22.70;13.70;;;14.50;99.90;;;;;;5011980;23;20442;-52
2021/10/08 07:42:47;;;;;;;33.10;15.40;;;14.60;99.90;;;;;;5043929;28;20464;-50
2021/10/08 07:45:14;;;;;;;19.40;12.70;;;14.70;99.90;;;;;;5056493;28;20476;-51
2021/10/08 07:47:42;;;;;;;24.30;13.77;;;14.80;99.90;;;;;;5056768;28;20522;-52
2021/10/08 07:50:10;;;;;;;20.10;12.83;;;14.80;99.90;;;;;;5033183;28;20464;-47
2021/10/08 07:52:37;;;;;;;22.30;14.80;;;14.90;99.90;;;;;;5055857;28;20428;-50
2021/10/08 07:55:05;;;;;;;22.13;13.67;;;15.00;99.90;;;;;;5046330;28;20783;-50
2021/10/08 07:57:32;;;;;;;22.00;13.67;;;15.00;99.90;;;;;;5037024;28;20444;-53
2021/10/08 07:59:58;;;;;;;24.90;13.87;;;15.10;99.90;;;;;;5040355;28;20460;-51
2021/10/08 08:02:28;;;;;;;18.70;14.00;;;15.10;99.90;;;;;;5036827;28;20470;-52
2021/10/08 08:04:56;;;;;;;24.57;16.17;;;15.10;99.90;;;;;;5034843;28;20479;-51
2021/10/08 08:07:23;;;;;;;18.70;13.00;;;15.10;99.90;;;;;;5036402;28;20487;-53
2021/10/08 08:09:50;;;;;;;22.77;13.40;;;15.10;99.90;;;;;;5036080;28;20445;-51
2021/10/08 08:12:17;;;;;;;21.20;13.53;;;15.20;99.90;;;;;;5036184;28;20428;-51
2021/10/08 08:14:45;;;;;;;23.80;14.53;;;15.30;99.90;;;;;;5035999;28;20444;-54
2021/10/08 08:17:12;;;;;;;25.77;14.07;;;15.50;99.90;;;;;;5036199;28;20460;-52
2021/10/08 08:19:39;;;;;;;28.07;13.53;;;15.60;99.90;;;;;;5037604;28;20801;-50
2021/10/08 08:22:07;;;;;;;27.07;13.40;;;15.60;99.90;;;;;;5038356;28;20753;-52
2021/10/08 08:24:35;;;;;;;23.47;13.80;;;15.70;99.90;;;;;;5037720;28;20483;-53
2021/10/08 08:27:01;;;;;;;19.47;12.10;;;15.80;99.90;;;;;;5039439;28;20472;-51
2021/10/08 08:29:28;;;;;;;17.93;12.33;;;15.90;99.90;;;;;;5042070;28;20433;-52
2021/10/08 08:31:55;;;;;;;23.27;13.43;;;16.10;99.90;;;;;;5038453;28;20467;-50
2021/10/08 08:34:23;;;;;;;28.07;14.73;;;16.20;99.90;;;;;;5042402;28;20436;-47
2021/10/08 08:36:49;;;;;;;20.60;13.97;;;16.40;99.90;;;;;;5051038;28;20448;-52
2021/10/08 08:39:19;;;;;;;22.80;13.93;;;16.70;99.90;;;;;;5037440;28;20460;-47
2021/10/08 08:41:46;;;;;;;20.50;14.17;;;17.30;99.90;;;;;;5036902;28;20458;-49
2021/10/08 08:44:13;;;;;;;19.17;11.67;;;18.20;99.90;;;;;;5037406;28;20464;-53
2021/10/08 08:46:40;;;;;;;20.47;12.37;;;19.30;99.90;;;;;;5036061;28;20480;-48
2021/10/08 08:49:06;;;;;;;15.60;11.30;;;20.40;99.90;;;;;;5040059;22;20515;-50
2021/10/08 08:51:33;;;;;;;15.57;11.20;;;21.60;99.90;;;;;;5049767;28;20451;-53
2021/10/08 08:54:03;;;;;;;15.60;13.10;;;22.60;99.90;;;;;;5031810;23;20612;-52
2021/10/08 08:56:31;;;;;;;15.60;10.57;;;23.60;99.90;;;;;;5015960;28;20556;-50
2021/10/08 08:58:59;;;;;;;15.23;11.30;;;24.60;96.80;;;;;;5022939;23;20488;-52
2021/10/08 09:01:26;;;;;;;16.03;11.30;;;25.40;93.20;;;;;;5014672;28;20933;-53
2021/10/08 09:04:01;;;;;;;16.30;12.30;;;26.30;88.40;;;;;;5021514;23;20496;-50
2021/10/08 09:06:33;;;;;;;14.10;12.60;;;26.60;81.40;;;;;;5014351;28;20475;-52
2021/10/08 09:09:11;;;;;;;14.13;9.33;;;25.90;78.80;;;;;;5021317;23;20588;-47
2021/10/08 09:11:39;;;;;;;15.47;11.63;;;25.00;79.10;;;;;;5014098;28;20484;-49
2021/10/08 09:14:16;;;;;;;14.70;10.67;;;24.00;80.60;;;;;;5026536;23;20837;-50
2021/10/08 09:17:08;;;;;;;14.70;10.60;;;22.90;83.80;;;;;;5034039;28;20435;-49
2021/10/08 09:19:53;;;;;;;14.33;10.37;;;22.00;85.40;;;;;;5046686;23;20525;-54
2021/10/08 09:22:21;;;;;;;17.93;8.87;;;21.10;87.80;;;;;;5047071;28;20435;-52
2021/10/08 09:24:52;;;;;;;10.97;8.37;;;20.80;90.50;;;;;;5066700;28;20435;-54
2021/10/08 09:27:23;;;;;;;12.13;8.97;;;21.40;88.20;;;;;;5053751;28;20473;-50
2021/10/08 09:29:52;;;;;;;13.13;8.67;;;22.20;87.90;;;;;;5070427;28;20943;-49
2021/10/08 09:32:20;;;;;;;11.27;8.30;;;23.00;84.50;;;;;;5059682;28;20438;-50
2021/10/08 09:34:48;;;;;;;8.83;7.03;;;23.50;77.40;;;;;;5064079;28;20467;-47
2021/10/08 09:37:16;;;;;;;9.70;7.50;;;24.10;75.20;;;;;;5067225;28;20545;-52
2021/10/08 09:39:50;;;;;;;13.70;8.47;;;24.90;71.30;;;;;;5072501;28;20964;-50
2021/10/08 09:42:18;;;;;;;12.67;7.60;;;25.60;67.80;;;;;;5059387;28;20450;-50
2021/10/08 09:44:48;;;;;;;11.30;8.10;;;26.30;64.30;;;;;;5064268;28;20439;-50
2021/10/08 09:47:17;;;;;;;9.43;7.00;;;26.90;61.50;;;;;;5067363;28;20434;-53
2021/10/08 09:49:45;;;;;;;15.27;7.40;;;27.40;59.40;;;;;;5057584;28;20439;-49
2021/10/08 09:52:24;;;;;;;8.60;7.20;;;27.90;56.80;;;;;;5069704;28;20861;-51
2021/10/08 09:54:51;;;;;;;8.43;6.90;;;27.90;55.20;;;;;;5063717;28;20446;-48
2021/10/08 09:57:18;;;;;;;11.43;7.10;;;28.00;54.00;;;;;;5059555;28;20482;-51
2021/10/08 09:59:48;;;;;;;10.30;5.50;;;27.90;53.20;;;;;;5071065;28;20442;-51
2021/10/08 10:02:15;;;;;;;14.37;6.63;;;27.90;52.80;;;;;;5062974;28;20455;-53
2021/10/08 10:04:47;;;;;;;14.70;6.40;;;27.80;52.30;;;;;;5067904;28;20450;-52
2021/10/08 10:07:18;;;;;;;11.80;6.80;;;27.70;52.50;;;;;;5070588;28;20515;-52
2021/10/08 10:09:47;;;;;;;9.20;6.70;;;27.60;52.10;;;;;;5060132;28;20550;-54
2021/10/08 10:12:15;;;;;;;11.20;6.80;;;27.70;51.90;;;;;;5072008;28;20453;-53
2021/10/08 10:14:45;;;;;;;18.23;6.73;;;27.70;51.80;;;;;;5030483;23;21022;-49
2021/10/08 10:17:15;;;;;;;8.90;6.10;;;27.60;51.30;;;;;;5017045;28;20465;-47
2021/10/08 10:19:45;;;;;;;8.90;6.67;;;27.60;50.80;;;;;;5023775;23;20520;-54
2021/10/08 10:22:15;;;;;;;8.37;6.13;;;27.50;50.70;;;;;;5017155;28;20445;-53
2021/10/08 10:24:44;;;;;;;8.87;6.20;;;27.40;50.70;;;;;;5024459;23;20488;-48
2021/10/08 10:27:12;;;;;;;10.17;6.50;;;27.30;50.30;;;;;;5016825;28;20437;-51
2021/10/08 10:29:39;;;;;;;14.40;7.63;;;27.20;51.00;;;;;;5023908;23;20522;-52
2021/10/08 10:32:07;;;;;;;7.97;5.13;;;27.00;51.50;;;;;;5017002;28;20461;-50
2021/10/08 10:34:38;;;;;;;7.10;5.20;;;26.90;51.10;;;;;;5024059;23;20503;-49
2021/10/08 10:37:06;;;;;;;10.60;6.10;;;26.60;51.50;;;;;;5017366;28;20477;-52
2021/10/08 10:39:33;;;;;;;8.97;6.53;;;26.30;52.40;;;;;;5026688;23;20826;-53
2021/10/08 10:42:16;;;;;;;9.33;6.60;;;26.10;52.70;;;;;;5016782;28;20461;-52
2021/10/08 10:45:11;;;;;;;11.07;6.93;;;25.70;53.70;;;;;;5024392;23;20531;-48
2021/10/08 10:47:40;;;;;;;8.43;5.63;;;25.60;54.50;;;;;;5016647;28;20476;-50
2021/10/08 10:50:19;;;;;;;10.90;7.47;;;25.20;55.40;;;;;;5024027;23;20984;-53
2021/10/08 10:52:51;;;;;;;10.03;7.33;;;24.90;55.60;;;;;;5017001;28;20451;-50
2021/10/08 10:55:18;;;;;;;11.83;7.23;;;24.60;56.70;;;;;;5023748;23;20507;-50
2021/10/08 10:58:04;;;;;;;11.40;7.40;;;24.30;57.30;;;;;;5016251;28;20472;-49
2021/10/08 11:00:38;;;;;;;8.30;6.70;;;24.00;57.80;;;;;;5023591;23;20497;-52
2021/10/08 11:03:12;;;;;;;14.47;7.00;;;23.70;58.10;;;;;;5016850;28;20516;-52
2021/10/08 11:06:02;;;;;;;11.13;6.27;;;23.40;58.70;;;;;;5024705;23;20508;-51
2021/10/08 11:08:28;;;;;;;22.57;6.73;;;23.00;59.70;;;;;;5017543;28;21056;-53
2021/10/08 11:11:20;;;;;;;11.90;6.10;;;22.50;60.20;;;;;;5022962;23;20488;-49
2021/10/08 11:13:49;;;;;;;10.27;7.23;;;22.10;61.00;;;;;;5016421;28;20445;-51
2021/10/08 11:16:30;;;;;;;11.57;6.50;;;21.80;62.90;;;;;;5033316;23;20495;-53
2021/10/08 11:18:57;;;;;;;10.80;6.40;;;21.60;64.20;;;;;;5036008;28;20859;-51
2021/10/08 11:21:49;;;;;;;9.37;6.23;;;21.30;64.80;;;;;;5042937;23;20491;-55
2021/10/08 11:24:19;;;;;;;11.93;7.37;;;21.10;64.10;;;;;;5021669;28;20478;-55
2021/10/08 11:26:57;;;;;;;8.77;6.30;;;21.00;65.90;;;;;;5046131;23;20496;-50
2021/10/08 11:29:26;;;;;;;11.97;8.10;;;20.70;66.70;;;;;;5037029;28;20851;-49
2021/10/08 11:32:04;;;;;;;13.10;5.67;;;20.60;67.30;;;;;;5045187;23;20566;-56
2021/10/08 11:34:31;;;;;;;9.50;6.10;;;20.40;67.90;;;;;;5038842;28;20436;-49
2021/10/08 11:37:00;;;;;;;8.67;5.87;;;20.30;67.60;;;;;;5044729;23;20553;-50
2021/10/08 11:39:28;;;;;;;10.63;7.20;;;20.20;67.20;;;;;;5036164;28;20468;-51
2021/10/08 11:42:03;;;;;;;15.40;6.53;;;20.00;68.90;;;;;;5042739;23;20492;-52
2021/10/08 11:44:32;;;;;;;8.73;6.10;;;19.90;68.40;;;;;;5035288;28;20974;-49
2021/10/08 11:47:08;;;;;;;10.13;6.60;;;20.00;69.80;;;;;;5029750;23;21065;-49
2021/10/08 11:49:51;;;;;;;12.30;6.80;;;19.90;71.00;;;;;;4996234;28;20493;-48
2021/10/08 11:52:28;;;;;;;9.83;6.00;;;19.90;70.50;;;;;;5005606;23;20492;-50
2021/10/08 11:55:04;;;;;;;12.60;6.13;;;19.90;70.90;;;;;;5035023;28;20472;-52
2021/10/08 12:00:00;;;;;;;7.30;5.20;;;19.90;68.50;;;;;;5040174;23;20545;-50
2021/10/08 12:02:31;;;;;;;8.53;5.13;;;19.80;68.80;;;;;;5035103;28;20467;-46
2021/10/08 12:04:58;;;;;;;13.13;8.30;;;19.70;69.30;;;;;;5042243;23;20484;-51
2021/10/08 12:07:30;;;;;;;14.60;7.00;;;19.70;71.00;;;;;;5035023;28;20480;-52
2021/10/08 12:10:09;;;;;;;12.03;6.03;;;19.70;70.30;;;;;;5041874;23;20488;-48
2021/10/08 12:12:49;;;;;;;8.13;6.57;;;19.60;72.00;;;;;;5034862;28;20527;-47
2021/10/08 12:21:09;;;;;;;10.33;6.30;;;19.50;72.50;;;;;;5022878;23;20489;-52
2021/10/08 12:23:58;;;;;;;10.97;6.97;;;19.50;73.50;;;;;;5026314;23;20473;-46
2021/10/08 12:26:25;;;;;;;10.80;5.70;;;19.60;73.00;;;;;;5014381;28;20445;-50
2021/10/08 12:28:53;;;;;;;14.17;6.47;;;19.60;72.80;;;;;;5030965;23;20488;-51
2021/10/08 12:31:21;;;;;;;10.60;6.10;;;19.60;72.90;;;;;;4995637;28;20446;-50
2021/10/08 12:33:49;;;;;;;10.23;5.87;;;19.60;72.70;;;;;;4995154;28;20516;-51
2021/10/08 12:36:22;;;;;;;11.40;5.87;;;19.60;72.80;;;;;;4995206;28;20446;-50
2021/10/08 12:39:03;;;;;;;8.07;5.40;;;19.70;72.20;;;;;;4994305;28;20442;-53
2021/10/08 12:41:34;;;;;;;13.03;5.60;;;19.80;71.60;;;;;;4996723;28;20457;-50
2021/10/08 12:44:07;;;;;;;10.93;6.10;;;19.80;71.80;;;;;;4998124;28;20521;-50
2021/10/08 12:46:36;;;;;;;9.30;5.57;;;19.80;71.70;;;;;;4996029;28;20473;-51
2021/10/08 12:49:04;;;;;;;11.43;6.00;;;19.80;71.20;;;;;;4995689;28;20568;-53
2021/10/08 12:51:33;;;;;;;14.17;5.40;;;19.80;72.30;;;;;;4995753;28;20469;-50
2021/10/08 12:54:14;;;;;;;10.70;5.80;;;19.90;71.90;;;;;;4995164;28;20919;-47
2021/10/08 12:56:43;;;;;;;8.50;5.80;;;19.80;69.70;;;;;;4995172;28;20453;-55
2021/10/08 12:59:10;;;;;;;9.43;5.10;;;19.80;69.10;;;;;;4995289;28;20473;-50
2021/10/08 13:01:37;;;;;;;8.03;5.80;;;19.90;70.30;;;;;;4995290;28;20442;-45